sensor_id;sensor_type;location;lat;lon;timestamp;pressure;altitude;pressure_sealevel;temperature;humidity
40788;BME280;26497;52.494;7.546;2024-02-15T00:02:08;100911.59;;;17.05;81.28
40788;BME280;26497;52.494;7.546;2024-02-15T00:04:36;100922.09;;;17.11;80.96
40788;BME280;26497;52.494;7.546;2024-02-15T00:07:04;100918.53;;;17.12;80.90
40788;BME280;26497;52.494;7.546;2024-02-15T00:09:31;100921.84;;;17.22;80.54
40788;BME280;26497;52.494;7.546;2024-02-15T00:11:58;100920.41;;;17.45;79.55
40788;BME280;26497;52.494;7.546;2024-02-15T00:14:26;100925.66;;;17.48;78.79
40788;BME280;26497;52.494;7.546;2024-02-15T00:16:53;100921.56;;;16.97;81.44
40788;BME280;26497;52.494;7.546;2024-02-15T00:19:20;100914.13;;;17.11;80.80
40788;BME280;26497;52.494;7.546;2024-02-15T00:21:47;100926.53;;;17.10;80.48
40788;BME280;26497;52.494;7.546;2024-02-15T00:24:16;100925.00;;;17.02;80.92
40788;BME280;26497;52.494;7.546;2024-02-15T00:26:43;100922.38;;;16.99;81.42
40788;BME280;26497;52.494;7.546;2024-02-15T00:29:10;100928.34;;;17.10;81.29
40788;BME280;26497;52.494;7.546;2024-02-15T00:31:36;100925.53;;;17.16;80.65
40788;BME280;26497;52.494;7.546;2024-02-15T00:34:04;100931.78;;;17.15;80.24
40788;BME280;26497;52.494;7.546;2024-02-15T00:36:31;100923.66;;;17.20;80.29
40788;BME280;26497;52.494;7.546;2024-02-15T00:38:59;100928.88;;;17.24;79.94
40788;BME280;26497;52.494;7.546;2024-02-15T00:41:27;100930.38;;;17.36;79.58
40788;BME280;26497;52.494;7.546;2024-02-15T00:43:54;100926.94;;;17.31;79.42
40788;BME280;26497;52.494;7.546;2024-02-15T00:46:21;100935.09;;;17.25;79.92
40788;BME280;26497;52.494;7.546;2024-02-15T00:48:48;100934.03;;;17.32;79.44
40788;BME280;26497;52.494;7.546;2024-02-15T00:51:15;100932.84;;;17.06;80.75
40788;BME280;26497;52.494;7.546;2024-02-15T00:53:42;100933.59;;;17.13;80.78
40788;BME280;26497;52.494;7.546;2024-02-15T00:56:09;100939.44;;;17.29;79.60
40788;BME280;26497;52.494;7.546;2024-02-15T00:58:38;100930.81;;;17.19;80.21
40788;BME280;26497;52.494;7.546;2024-02-15T01:01:05;100939.03;;;17.08;81.02
40788;BME280;26497;52.494;7.546;2024-02-15T01:03:32;100934.41;;;17.17;80.37
40788;BME280;26497;52.494;7.546;2024-02-15T01:06:00;100935.66;;;17.02;81.18
40788;BME280;26497;52.494;7.546;2024-02-15T01:08:28;100945.69;;;17.27;79.57
40788;BME280;26497;52.494;7.546;2024-02-15T01:10:55;100938.16;;;17.08;81.04
40788;BME280;26497;52.494;7.546;2024-02-15T01:13:22;100943.28;;;17.17;80.17
40788;BME280;26497;52.494;7.546;2024-02-15T01:15:50;100944.69;;;17.32;79.79
40788;BME280;26497;52.494;7.546;2024-02-15T01:18:17;100950.50;;;17.12;80.07
40788;BME280;26497;52.494;7.546;2024-02-15T01:20:45;100946.72;;;17.22;79.66
40788;BME280;26497;52.494;7.546;2024-02-15T01:23:12;100952.75;;;17.29;79.41
40788;BME280;26497;52.494;7.546;2024-02-15T01:25:39;100947.91;;;17.45;78.59
40788;BME280;26497;52.494;7.546;2024-02-15T01:28:06;100943.09;;;17.25;79.23
40788;BME280;26497;52.494;7.546;2024-02-15T01:30:33;100949.69;;;17.08;80.04
40788;BME280;26497;52.494;7.546;2024-02-15T01:33:02;100946.25;;;17.03;80.36
40788;BME280;26497;52.494;7.546;2024-02-15T01:35:29;100949.53;;;17.15;80.18
40788;BME280;26497;52.494;7.546;2024-02-15T01:37:56;100946.84;;;17.16;79.89
40788;BME280;26497;52.494;7.546;2024-02-15T01:40:23;100943.00;;;17.28;79.30
40788;BME280;26497;52.494;7.546;2024-02-15T01:42:50;100959.22;;;17.19;79.73
40788;BME280;26497;52.494;7.546;2024-02-15T01:45:16;100952.53;;;17.38;78.71
40788;BME280;26497;52.494;7.546;2024-02-15T01:47:43;100954.53;;;17.29;78.89
40788;BME280;26497;52.494;7.546;2024-02-15T01:50:12;100950.09;;;17.29;79.04
40788;BME280;26497;52.494;7.546;2024-02-15T01:52:41;100951.84;;;17.30;78.88
40788;BME280;26497;52.494;7.546;2024-02-15T01:55:13;100944.69;;;17.32;78.85
40788;BME280;26497;52.494;7.546;2024-02-15T01:57:40;100941.59;;;17.51;77.94
40788;BME280;26497;52.494;7.546;2024-02-15T02:00:11;100945.34;;;17.42;77.93
40788;BME280;26497;52.494;7.546;2024-02-15T02:02:39;100940.88;;;17.43;78.15
40788;BME280;26497;52.494;7.546;2024-02-15T02:05:08;100936.00;;;17.24;78.74
40788;BME280;26497;52.494;7.546;2024-02-15T02:07:37;100944.19;;;17.16;79.20
40788;BME280;26497;52.494;7.546;2024-02-15T02:10:05;100935.44;;;17.11;79.46
40788;BME280;26497;52.494;7.546;2024-02-15T02:12:32;100933.41;;;17.22;79.13
40788;BME280;26497;52.494;7.546;2024-02-15T02:15:00;100940.44;;;17.23;78.92
40788;BME280;26497;52.494;7.546;2024-02-15T02:17:26;100929.19;;;17.12;79.79
40788;BME280;26497;52.494;7.546;2024-02-15T02:19:54;100931.88;;;17.10;79.83
40788;BME280;26497;52.494;7.546;2024-02-15T02:22:22;100926.81;;;17.36;78.59
40788;BME280;26497;52.494;7.546;2024-02-15T02:25:00;100925.03;;;17.36;78.41
40788;BME280;26497;52.494;7.546;2024-02-15T02:27:29;100926.41;;;17.17;78.94
40788;BME280;26497;52.494;7.546;2024-02-15T02:29:57;100927.59;;;17.03;80.09
40788;BME280;26497;52.494;7.546;2024-02-15T02:32:25;100927.47;;;17.09;79.85
40788;BME280;26497;52.494;7.546;2024-02-15T02:34:52;100920.16;;;17.18;79.43
40788;BME280;26497;52.494;7.546;2024-02-15T02:37:23;100922.81;;;17.19;79.23
40788;BME280;26497;52.494;7.546;2024-02-15T02:39:50;100923.03;;;17.08;79.50
40788;BME280;26497;52.494;7.546;2024-02-15T02:42:18;100913.19;;;17.12;79.49
40788;BME280;26497;52.494;7.546;2024-02-15T02:44:46;100922.28;;;17.03;79.74
40788;BME280;26497;52.494;7.546;2024-02-15T02:47:13;100926.47;;;17.14;79.52
40788;BME280;26497;52.494;7.546;2024-02-15T02:49:40;100924.00;;;17.06;79.83
40788;BME280;26497;52.494;7.546;2024-02-15T02:52:07;100926.69;;;17.04;80.09
40788;BME280;26497;52.494;7.546;2024-02-15T02:54:34;100928.97;;;17.21;79.02
40788;BME280;26497;52.494;7.546;2024-02-15T02:57:01;100919.59;;;17.05;79.70
40788;BME280;26497;52.494;7.546;2024-02-15T02:59:34;100925.41;;;17.22;79.36
40788;BME280;26497;52.494;7.546;2024-02-15T03:02:01;100916.44;;;17.25;79.03
40788;BME280;26497;52.494;7.546;2024-02-15T03:04:29;100916.47;;;17.23;79.20
40788;BME280;26497;52.494;7.546;2024-02-15T03:06:58;100927.63;;;17.39;78.36
40788;BME280;26497;52.494;7.546;2024-02-15T03:09:25;100934.66;;;17.44;77.84
40788;BME280;26497;52.494;7.546;2024-02-15T03:11:55;100930.66;;;17.24;78.71
40788;BME280;26497;52.494;7.546;2024-02-15T03:14:23;100929.28;;;17.07;79.54
40788;BME280;26497;52.494;7.546;2024-02-15T03:16:52;100930.06;;;17.13;79.46
40788;BME280;26497;52.494;7.546;2024-02-15T03:19:21;100914.44;;;16.95;80.31
40788;BME280;26497;52.494;7.546;2024-02-15T03:21:48;100916.22;;;16.97;80.39
40788;BME280;26497;52.494;7.546;2024-02-15T03:24:15;100929.22;;;17.10;79.78
40788;BME280;26497;52.494;7.546;2024-02-15T03:26:42;100922.44;;;16.95;80.46
40788;BME280;26497;52.494;7.546;2024-02-15T03:29:09;100927.47;;;17.09;80.04
40788;BME280;26497;52.494;7.546;2024-02-15T03:31:37;100930.81;;;17.18;79.81
40788;BME280;26497;52.494;7.546;2024-02-15T03:34:05;100919.94;;;17.27;78.99
40788;BME280;26497;52.494;7.546;2024-02-15T03:36:32;100917.28;;;17.27;78.68
40788;BME280;26497;52.494;7.546;2024-02-15T03:38:59;100918.13;;;17.29;78.62
40788;BME280;26497;52.494;7.546;2024-02-15T03:41:27;100929.41;;;17.39;78.21
40788;BME280;26497;52.494;7.546;2024-02-15T03:43:56;100925.41;;;17.21;79.07
40788;BME280;26497;52.494;7.546;2024-02-15T03:46:24;100928.19;;;17.16;79.61
40788;BME280;26497;52.494;7.546;2024-02-15T03:48:52;100924.34;;;17.28;78.84
40788;BME280;26497;52.494;7.546;2024-02-15T03:51:21;100920.97;;;17.21;78.95
40788;BME280;26497;52.494;7.546;2024-02-15T03:53:50;100919.31;;;17.16;79.17
40788;BME280;26497;52.494;7.546;2024-02-15T03:56:18;100920.38;;;17.08;79.95
40788;BME280;26497;52.494;7.546;2024-02-15T03:58:45;100927.38;;;17.13;79.79
40788;BME280;26497;52.494;7.546;2024-02-15T04:01:12;100932.78;;;17.09;79.90
40788;BME280;26497;52.494;7.546;2024-02-15T04:03:41;100930.88;;;17.16;79.56
40788;BME280;26497;52.494;7.546;2024-02-15T04:06:08;100938.78;;;17.19;79.77
40788;BME280;26497;52.494;7.546;2024-02-15T04:08:38;100936.28;;;17.12;79.93
40788;BME280;26497;52.494;7.546;2024-02-15T04:11:05;100934.19;;;17.24;79.45
40788;BME280;26497;52.494;7.546;2024-02-15T04:13:33;100936.28;;;17.13;79.91
40788;BME280;26497;52.494;7.546;2024-02-15T04:16:00;100926.06;;;17.31;79.02
40788;BME280;26497;52.494;7.546;2024-02-15T04:18:27;100929.63;;;17.31;78.89
40788;BME280;26497;52.494;7.546;2024-02-15T04:20:55;100936.00;;;17.24;78.98
40788;BME280;26497;52.494;7.546;2024-02-15T04:23:22;100934.94;;;17.31;78.59
40788;BME280;26497;52.494;7.546;2024-02-15T04:25:51;100935.03;;;17.27;78.73
40788;BME280;26497;52.494;7.546;2024-02-15T04:28:17;100928.50;;;17.40;78.35
40788;BME280;26497;52.494;7.546;2024-02-15T04:30:44;100931.22;;;17.38;78.55
40788;BME280;26497;52.494;7.546;2024-02-15T04:33:14;100935.41;;;17.49;77.89
40788;BME280;26497;52.494;7.546;2024-02-15T04:35:42;100940.00;;;17.42;78.05
40788;BME280;26497;52.494;7.546;2024-02-15T04:38:09;100937.94;;;17.53;77.75
40788;BME280;26497;52.494;7.546;2024-02-15T04:40:36;100929.88;;;17.57;77.26
40788;BME280;26497;52.494;7.546;2024-02-15T04:43:05;100930.78;;;17.56;77.43
40788;BME280;26497;52.494;7.546;2024-02-15T04:45:32;100935.56;;;17.43;77.37
40788;BME280;26497;52.494;7.546;2024-02-15T04:47:59;100932.50;;;17.22;78.53
40788;BME280;26497;52.494;7.546;2024-02-15T04:50:28;100920.72;;;17.31;78.48
40788;BME280;26497;52.494;7.546;2024-02-15T04:52:55;100926.56;;;17.47;77.87
40788;BME280;26497;52.494;7.546;2024-02-15T04:55:22;100923.59;;;17.59;77.05
40788;BME280;26497;52.494;7.546;2024-02-15T04:57:52;100921.09;;;17.53;77.21
40788;BME280;26497;52.494;7.546;2024-02-15T05:00:23;100915.69;;;17.56;77.18
40788;BME280;26497;52.494;7.546;2024-02-15T05:02:51;100918.88;;;17.34;77.62
40788;BME280;26497;52.494;7.546;2024-02-15T05:05:19;100923.97;;;17.44;77.70
40788;BME280;26497;52.494;7.546;2024-02-15T05:07:47;100916.22;;;17.34;77.64
40788;BME280;26497;52.494;7.546;2024-02-15T05:10:16;100920.44;;;17.43;77.54
40788;BME280;26497;52.494;7.546;2024-02-15T05:12:43;100917.13;;;17.33;77.90
40788;BME280;26497;52.494;7.546;2024-02-15T05:15:10;100919.03;;;17.28;78.00
40788;BME280;26497;52.494;7.546;2024-02-15T05:17:39;100921.00;;;17.20;78.48
40788;BME280;26497;52.494;7.546;2024-02-15T05:20:10;100915.16;;;17.42;77.34
40788;BME280;26497;52.494;7.546;2024-02-15T05:22:38;100911.94;;;17.27;77.88
40788;BME280;26497;52.494;7.546;2024-02-15T05:25:09;100913.22;;;17.10;78.40
40788;BME280;26497;52.494;7.546;2024-02-15T05:27:38;100904.09;;;17.21;78.27
40788;BME280;26497;52.494;7.546;2024-02-15T05:30:05;100908.09;;;17.39;77.45
40788;BME280;26497;52.494;7.546;2024-02-15T05:32:33;100905.69;;;17.28;77.50
40788;BME280;26497;52.494;7.546;2024-02-15T05:35:10;100900.22;;;17.34;77.00
40788;BME280;26497;52.494;7.546;2024-02-15T05:37:39;100903.81;;;17.32;77.27
40788;BME280;26497;52.494;7.546;2024-02-15T05:40:06;100895.41;;;17.13;77.73
40788;BME280;26497;52.494;7.546;2024-02-15T05:42:41;100896.09;;;17.22;77.56
40788;BME280;26497;52.494;7.546;2024-02-15T05:45:30;100890.97;;;17.13;78.14
40788;BME280;26497;52.494;7.546;2024-02-15T05:48:04;100892.22;;;16.95;79.01
40788;BME280;26497;52.494;7.546;2024-02-15T05:50:34;100892.31;;;16.92;78.67
40788;BME280;26497;52.494;7.546;2024-02-15T05:53:01;100891.50;;;16.88;79.02
40788;BME280;26497;52.494;7.546;2024-02-15T05:55:29;100879.03;;;16.90;78.70
40788;BME280;26497;52.494;7.546;2024-02-15T05:57:59;100872.94;;;16.85;78.64
40788;BME280;26497;52.494;7.546;2024-02-15T06:00:27;100868.66;;;16.78;79.23
40788;BME280;26497;52.494;7.546;2024-02-15T06:02:55;100862.09;;;16.93;78.47
40788;BME280;26497;52.494;7.546;2024-02-15T06:05:22;100860.34;;;16.92;77.98
40788;BME280;26497;52.494;7.546;2024-02-15T06:07:51;100860.41;;;16.89;78.11
40788;BME280;26497;52.494;7.546;2024-02-15T06:10:17;100865.84;;;16.84;77.91
40788;BME280;26497;52.494;7.546;2024-02-15T06:12:44;100871.34;;;16.76;78.16
40788;BME280;26497;52.494;7.546;2024-02-15T06:15:11;100870.50;;;16.76;78.54
40788;BME280;26497;52.494;7.546;2024-02-15T06:17:41;100865.44;;;16.63;79.10
40788;BME280;26497;52.494;7.546;2024-02-15T06:20:12;100870.75;;;16.63;79.33
40788;BME280;26497;52.494;7.546;2024-02-15T06:22:40;100868.31;;;16.54;80.11
40788;BME280;26497;52.494;7.546;2024-02-15T06:25:09;100860.25;;;16.57;79.67
40788;BME280;26497;52.494;7.546;2024-02-15T06:27:36;100862.13;;;16.52;80.58
40788;BME280;26497;52.494;7.546;2024-02-15T06:30:07;100855.03;;;16.53;80.29
40788;BME280;26497;52.494;7.546;2024-02-15T06:32:52;100860.56;;;16.43;80.77
40788;BME280;26497;52.494;7.546;2024-02-15T06:35:37;100864.06;;;16.45;80.93
40788;BME280;26497;52.494;7.546;2024-02-15T06:38:21;100855.91;;;16.53;80.58
40788;BME280;26497;52.494;7.546;2024-02-15T06:41:07;100864.53;;;16.63;80.14
40788;BME280;26497;52.494;7.546;2024-02-15T06:43:34;100872.38;;;16.71;79.69
40788;BME280;26497;52.494;7.546;2024-02-15T06:46:02;100868.66;;;16.78;79.92
40788;BME280;26497;52.494;7.546;2024-02-15T06:48:29;100878.69;;;16.66;80.29
40788;BME280;26497;52.494;7.546;2024-02-15T06:50:57;100876.03;;;16.66;80.30
40788;BME280;26497;52.494;7.546;2024-02-15T06:53:24;100882.50;;;16.94;79.13
40788;BME280;26497;52.494;7.546;2024-02-15T06:55:51;100886.41;;;16.77;79.60
40788;BME280;26497;52.494;7.546;2024-02-15T06:58:19;100875.47;;;16.91;79.37
40788;BME280;26497;52.494;7.546;2024-02-15T07:00:47;100874.63;;;16.88;79.44
40788;BME280;26497;52.494;7.546;2024-02-15T07:03:15;100875.88;;;16.73;79.84
40788;BME280;26497;52.494;7.546;2024-02-15T07:05:43;100878.47;;;16.76;80.07
40788;BME280;26497;52.494;7.546;2024-02-15T07:08:10;100875.06;;;16.69;80.38
40788;BME280;26497;52.494;7.546;2024-02-15T07:10:39;100876.16;;;16.59;80.91
40788;BME280;26497;52.494;7.546;2024-02-15T07:13:08;100876.03;;;16.66;80.83
40788;BME280;26497;52.494;7.546;2024-02-15T07:15:37;100863.63;;;16.64;80.89
40788;BME280;26497;52.494;7.546;2024-02-15T07:18:05;100870.13;;;16.91;79.84
40788;BME280;26497;52.494;7.546;2024-02-15T07:20:33;100869.25;;;16.91;79.58
40788;BME280;26497;52.494;7.546;2024-02-15T07:23:00;100873.22;;;17.12;78.57
40788;BME280;26497;52.494;7.546;2024-02-15T07:25:27;100861.00;;;17.03;78.66
40788;BME280;26497;52.494;7.546;2024-02-15T07:27:54;100864.28;;;17.15;78.65
40788;BME280;26497;52.494;7.546;2024-02-15T07:30:22;100862.72;;;17.06;78.82
40788;BME280;26497;52.494;7.546;2024-02-15T07:32:50;100863.41;;;17.14;78.66
40788;BME280;26497;52.494;7.546;2024-02-15T07:35:18;100868.47;;;17.25;77.86
40788;BME280;26497;52.494;7.546;2024-02-15T07:37:51;100872.47;;;17.07;78.69
40788;BME280;26497;52.494;7.546;2024-02-15T07:40:21;100864.69;;;16.98;79.21
40788;BME280;26497;52.494;7.546;2024-02-15T07:42:48;100860.53;;;17.22;78.70
40788;BME280;26497;52.494;7.546;2024-02-15T07:45:17;100856.44;;;17.43;77.32
40788;BME280;26497;52.494;7.546;2024-02-15T07:47:44;100851.34;;;17.34;77.53
40788;BME280;26497;52.494;7.546;2024-02-15T07:50:16;100854.00;;;17.35;77.60
40788;BME280;26497;52.494;7.546;2024-02-15T07:52:46;100862.34;;;17.21;77.62
40788;BME280;26497;52.494;7.546;2024-02-15T07:55:13;100862.75;;;17.04;78.88
40788;BME280;26497;52.494;7.546;2024-02-15T07:57:40;100860.00;;;17.07;78.86
40788;BME280;26497;52.494;7.546;2024-02-15T08:00:08;100865.66;;;17.31;77.46
40788;BME280;26497;52.494;7.546;2024-02-15T08:02:37;100854.16;;;17.29;77.80
40788;BME280;26497;52.494;7.546;2024-02-15T08:05:06;100858.88;;;17.18;78.09
40788;BME280;26497;52.494;7.546;2024-02-15T08:07:38;100856.44;;;17.08;78.78
40788;BME280;26497;52.494;7.546;2024-02-15T08:10:08;100846.53;;;17.14;78.95
40788;BME280;26497;52.494;7.546;2024-02-15T08:12:39;100844.59;;;17.20;78.53
40788;BME280;26497;52.494;7.546;2024-02-15T08:15:07;100839.72;;;17.02;79.16
40788;BME280;26497;52.494;7.546;2024-02-15T08:17:38;100840.41;;;16.71;80.55
40788;BME280;26497;52.494;7.546;2024-02-15T08:20:07;100836.75;;;17.14;79.52
40788;BME280;26497;52.494;7.546;2024-02-15T08:22:37;100828.50;;;17.23;79.05
40788;BME280;26497;52.494;7.546;2024-02-15T08:25:07;100830.38;;;17.20;78.76
40788;BME280;26497;52.494;7.546;2024-02-15T08:27:37;100825.13;;;17.17;79.09
40788;BME280;26497;52.494;7.546;2024-02-15T08:30:08;100841.81;;;17.25;78.63
40788;BME280;26497;52.494;7.546;2024-02-15T08:32:36;100835.13;;;17.08;78.71
40788;BME280;26497;52.494;7.546;2024-02-15T08:35:05;100832.66;;;17.01;79.80
40788;BME280;26497;52.494;7.546;2024-02-15T08:37:33;100835.59;;;17.24;78.54
40788;BME280;26497;52.494;7.546;2024-02-15T08:40:03;100841.19;;;17.14;78.81
40788;BME280;26497;52.494;7.546;2024-02-15T08:42:36;100843.03;;;17.12;79.11
40788;BME280;26497;52.494;7.546;2024-02-15T08:45:04;100844.91;;;17.08;79.61
40788;BME280;26497;52.494;7.546;2024-02-15T08:47:35;100847.16;;;17.23;78.37
40788;BME280;26497;52.494;7.546;2024-02-15T08:50:04;100848.28;;;17.15;78.79
40788;BME280;26497;52.494;7.546;2024-02-15T08:52:32;100847.66;;;17.03;79.21
40788;BME280;26497;52.494;7.546;2024-02-15T08:54:59;100846.31;;;17.23;78.84
40788;BME280;26497;52.494;7.546;2024-02-15T08:57:27;100851.63;;;17.23;78.29
40788;BME280;26497;52.494;7.546;2024-02-15T08:59:54;100853.59;;;17.16;79.00
40788;BME280;26497;52.494;7.546;2024-02-15T09:02:21;100852.78;;;17.13;79.34
40788;BME280;26497;52.494;7.546;2024-02-15T09:04:49;100861.53;;;17.18;79.02
40788;BME280;26497;52.494;7.546;2024-02-15T09:07:16;100852.03;;;17.42;77.69
40788;BME280;26497;52.494;7.546;2024-02-15T09:09:43;100860.03;;;17.42;77.99
40788;BME280;26497;52.494;7.546;2024-02-15T09:12:10;100853.06;;;17.36;78.35
40788;BME280;26497;52.494;7.546;2024-02-15T09:14:39;100848.53;;;17.40;78.47
40788;BME280;26497;52.494;7.546;2024-02-15T09:17:06;100857.78;;;17.60;77.34
40788;BME280;26497;52.494;7.546;2024-02-15T09:19:33;100847.19;;;17.58;77.32
40788;BME280;26497;52.494;7.546;2024-02-15T09:22:01;100852.16;;;17.37;78.21
40788;BME280;26497;52.494;7.546;2024-02-15T09:24:30;100844.59;;;17.20;78.95
40788;BME280;26497;52.494;7.546;2024-02-15T09:26:58;100838.03;;;16.96;80.45
40788;BME280;26497;52.494;7.546;2024-02-15T09:29:27;100834.94;;;17.16;80.08
40788;BME280;26497;52.494;7.546;2024-02-15T09:31:57;100829.78;;;17.43;78.74
40788;BME280;26497;52.494;7.546;2024-02-15T09:34:24;100825.44;;;17.39;78.59
40788;BME280;26497;52.494;7.546;2024-02-15T09:36:51;100816.78;;;17.31;78.77
40788;BME280;26497;52.494;7.546;2024-02-15T09:39:18;100794.38;;;17.03;80.07
40788;BME280;26497;52.494;7.546;2024-02-15T09:41:45;100805.13;;;17.00;80.20
40788;BME280;26497;52.494;7.546;2024-02-15T09:44:16;100834.28;;;17.41;78.64
40788;BME280;26497;52.494;7.546;2024-02-15T09:46:43;100842.66;;;17.27;79.09
40788;BME280;26497;52.494;7.546;2024-02-15T09:49:14;100826.66;;;17.27;79.09
40788;BME280;26497;52.494;7.546;2024-02-15T09:51:41;100832.13;;;17.22;79.32
40788;BME280;26497;52.494;7.546;2024-02-15T09:54:09;100824.75;;;17.32;78.64
40788;BME280;26497;52.494;7.546;2024-02-15T09:56:37;100831.19;;;17.23;79.31
40788;BME280;26497;52.494;7.546;2024-02-15T09:59:04;100820.34;;;17.30;78.95
40788;BME280;26497;52.494;7.546;2024-02-15T10:01:33;100810.16;;;17.13;79.95
40788;BME280;26497;52.494;7.546;2024-02-15T10:04:01;100807.31;;;17.19;80.31
40788;BME280;26497;52.494;7.546;2024-02-15T10:06:33;100799.69;;;17.05;81.03
40788;BME280;26497;52.494;7.546;2024-02-15T10:09:31;100802.16;;;17.13;81.02
40788;BME280;26497;52.494;7.546;2024-02-15T10:11:59;100808.25;;;17.18;80.33
40788;BME280;26497;52.494;7.546;2024-02-15T10:14:28;100818.44;;;17.36;79.49
40788;BME280;26497;52.494;7.546;2024-02-15T10:16:55;100834.69;;;17.25;79.74
40788;BME280;26497;52.494;7.546;2024-02-15T10:19:23;100831.78;;;17.35;79.50
40788;BME280;26497;52.494;7.546;2024-02-15T10:21:53;100833.59;;;17.34;79.36
40788;BME280;26497;52.494;7.546;2024-02-15T10:24:22;100837.75;;;17.45;78.81
40788;BME280;26497;52.494;7.546;2024-02-15T10:26:50;100838.63;;;17.45;78.78
40788;BME280;26497;52.494;7.546;2024-02-15T10:29:19;100845.00;;;17.39;78.81
40788;BME280;26497;52.494;7.546;2024-02-15T10:31:53;100836.59;;;17.55;77.87
40788;BME280;26497;52.494;7.546;2024-02-15T10:34:20;100833.53;;;17.69;77.16
40788;BME280;26497;52.494;7.546;2024-02-15T10:36:47;100831.47;;;17.47;78.34
40788;BME280;26497;52.494;7.546;2024-02-15T10:39:17;100832.03;;;17.60;77.93
40788;BME280;26497;52.494;7.546;2024-02-15T10:41:46;100830.19;;;17.62;77.69
40788;BME280;26497;52.494;7.546;2024-02-15T10:44:18;100832.28;;;17.49;78.51
40788;BME280;26497;52.494;7.546;2024-02-15T10:46:49;100830.44;;;17.53;78.24
40788;BME280;26497;52.494;7.546;2024-02-15T10:49:18;100834.63;;;17.62;77.79
40788;BME280;26497;52.494;7.546;2024-02-15T10:51:51;100832.03;;;17.60;77.93
40788;BME280;26497;52.494;7.546;2024-02-15T10:54:30;100826.03;;;17.50;78.70
40788;BME280;26497;52.494;7.546;2024-02-15T10:57:04;100832.25;;;17.51;78.56
40788;BME280;26497;52.494;7.546;2024-02-15T10:59:32;100817.84;;;17.58;78.46
40788;BME280;26497;52.494;7.546;2024-02-15T11:02:02;100816.63;;;17.70;78.05
40788;BME280;26497;52.494;7.546;2024-02-15T11:04:35;100815.88;;;17.65;78.28
40788;BME280;26497;52.494;7.546;2024-02-15T11:07:02;100820.22;;;17.69;78.76
40788;BME280;26497;52.494;7.546;2024-02-15T11:09:33;100821.78;;;17.78;78.17
40788;BME280;26497;52.494;7.546;2024-02-15T11:12:02;100818.19;;;17.79;78.15
40788;BME280;26497;52.494;7.546;2024-02-15T11:14:30;100811.00;;;17.81;78.22
40788;BME280;26497;52.494;7.546;2024-02-15T11:16:58;100826.72;;;17.59;78.86
40788;BME280;26497;52.494;7.546;2024-02-15T11:19:43;100816.94;;;17.91;77.81
40788;BME280;26497;52.494;7.546;2024-02-15T11:22:14;100819.09;;;17.78;78.44
40788;BME280;26497;52.494;7.546;2024-02-15T11:24:50;100818.09;;;17.82;78.12
40788;BME280;26497;52.494;7.546;2024-02-15T11:27:24;100810.84;;;17.87;76.89
40788;BME280;26497;52.494;7.546;2024-02-15T11:29:53;100813.59;;;17.84;77.72
40788;BME280;26497;52.494;7.546;2024-02-15T11:32:40;100804.28;;;17.97;77.88
40788;BME280;26497;52.494;7.546;2024-02-15T11:35:10;100803.13;;;18.08;76.55
40788;BME280;26497;52.494;7.546;2024-02-15T11:37:50;100799.88;;;17.96;76.86
40788;BME280;26497;52.494;7.546;2024-02-15T11:40:23;100806.88;;;18.02;76.62
40788;BME280;26497;52.494;7.546;2024-02-15T11:42:51;100799.38;;;18.15;75.97
40788;BME280;26497;52.494;7.546;2024-02-15T11:45:20;100803.69;;;18.19;75.65
40788;BME280;26497;52.494;7.546;2024-02-15T11:47:48;100803.59;;;18.22;75.66
40788;BME280;26497;52.494;7.546;2024-02-15T11:50:16;100804.34;;;18.27;75.16
40788;BME280;26497;52.494;7.546;2024-02-15T11:52:44;100804.22;;;18.32;74.52
40788;BME280;26497;52.494;7.546;2024-02-15T11:55:12;100802.84;;;18.19;74.71
40788;BME280;26497;52.494;7.546;2024-02-15T11:57:41;100799.25;;;18.20;75.04
40788;BME280;26497;52.494;7.546;2024-02-15T12:00:21;100792.34;;;18.12;75.14
40788;BME280;26497;52.494;7.546;2024-02-15T12:03:06;100801.84;;;18.21;74.40
40788;BME280;26497;52.494;7.546;2024-02-15T12:05:50;100801.47;;;18.04;75.12
40788;BME280;26497;52.494;7.546;2024-02-15T12:08:35;100787.28;;;18.03;75.40
40788;BME280;26497;52.494;7.546;2024-02-15T12:11:20;100782.53;;;18.13;75.77
40788;BME280;26497;52.494;7.546;2024-02-15T12:14:06;100786.50;;;17.98;75.67
40788;BME280;26497;52.494;7.546;2024-02-15T12:17:03;100782.03;;;17.98;74.73
40788;BME280;26497;52.494;7.546;2024-02-15T12:19:48;100786.13;;;17.80;76.39
40788;BME280;26497;52.494;7.546;2024-02-15T12:22:18;100780.44;;;17.93;75.81
40788;BME280;26497;52.494;7.546;2024-02-15T12:24:54;100785.47;;;18.04;75.33
40788;BME280;26497;52.494;7.546;2024-02-15T12:27:21;100775.69;;;17.73;76.96
40788;BME280;26497;52.494;7.546;2024-02-15T12:29:57;100772.34;;;17.64;77.63
40788;BME280;26497;52.494;7.546;2024-02-15T12:32:25;100766.16;;;17.94;76.74
40788;BME280;26497;52.494;7.546;2024-02-15T12:34:52;100773.38;;;17.90;76.54
40788;BME280;26497;52.494;7.546;2024-02-15T12:37:20;100764.41;;;17.93;77.07
40788;BME280;26497;52.494;7.546;2024-02-15T12:39:48;100768.34;;;18.11;76.44
40788;BME280;26497;52.494;7.546;2024-02-15T12:42:15;100762.94;;;18.14;76.60
40788;BME280;26497;52.494;7.546;2024-02-15T12:44:45;100761.78;;;18.23;76.10
40788;BME280;26497;52.494;7.546;2024-02-15T12:47:22;100764.19;;;18.31;75.37
40788;BME280;26497;52.494;7.546;2024-02-15T12:49:50;100766.28;;;18.21;75.75
40788;BME280;26497;52.494;7.546;2024-02-15T12:52:33;100749.94;;;18.32;75.47
40788;BME280;26497;52.494;7.546;2024-02-15T12:55:19;100752.22;;;18.44;75.40
40788;BME280;26497;52.494;7.546;2024-02-15T12:57:49;100757.53;;;18.46;75.05
40788;BME280;26497;52.494;7.546;2024-02-15T13:00:18;100751.75;;;18.58;74.96
40788;BME280;26497;52.494;7.546;2024-02-15T13:02:46;100749.22;;;18.82;74.24